createdAt,value
2023-01-22T00:01:39.440Z,103702.91
2023-01-22T00:04:26.450Z,103717.84
2023-01-22T00:07:13.301Z,103652.50
2023-01-22T00:10:00.523Z,103698.25
2023-01-22T00:12:47.941Z,103696.38
2023-01-22T00:15:35.116Z,103693.25
2023-01-22T00:18:21.943Z,103703.88
2023-01-22T00:21:13.458Z,103679.97
2023-01-22T00:24:00.906Z,103714.84
2023-01-22T00:26:48.473Z,103707.28
2023-01-22T00:29:35.852Z,103707.47
2023-01-22T00:32:23.080Z,103697.63
2023-01-22T00:35:10.001Z,103707.97
2023-01-22T00:37:57.152Z,103632.72
2023-01-22T00:40:44.096Z,103703.97
2023-01-22T00:43:31.181Z,103707.66
2023-01-22T00:46:18.063Z,103705.94
2023-01-22T00:49:05.058Z,103614.91
2023-01-22T00:51:52.021Z,103697.50
2023-01-22T00:54:39.051Z,103714.50
2023-01-22T00:57:26.042Z,103713.00
2023-01-22T01:00:13.327Z,103692.72
2023-01-22T01:03:00.886Z,103704.75
2023-01-22T01:05:48.214Z,103711.09
2023-01-22T01:08:37.392Z,103696.25
2023-01-22T01:11:27.214Z,103662.81
2023-01-22T01:14:14.238Z,103697.94
2023-01-22T01:17:01.426Z,103699.00
2023-01-22T01:19:48.376Z,103706.16
2023-01-22T01:22:35.558Z,103682.50
2023-01-22T01:25:22.512Z,103700.56
2023-01-22T01:28:09.544Z,103682.88
2023-01-22T01:30:56.556Z,103668.81
2023-01-22T01:33:43.655Z,103610.28
2023-01-22T01:36:54.547Z,103694.44
2023-01-22T01:39:41.586Z,103698.13
2023-01-22T01:42:28.913Z,103684.63
2023-01-22T01:45:37.863Z,103683.13
2023-01-22T01:48:48.732Z,103681.63
2023-01-22T01:51:42.268Z,103647.91
2023-01-22T01:54:29.599Z,103677.69
2023-01-22T01:57:23.011Z,103680.47
2023-01-22T02:00:11.744Z,103681.63
2023-01-22T02:03:01.457Z,103659.53
2023-01-22T02:05:53.576Z,103678.78
2023-01-22T02:08:40.485Z,103687.72
2023-01-22T02:11:28.429Z,103683.63
2023-01-22T02:14:25.528Z,103689.09
2023-01-22T02:17:32.098Z,103667.25
2023-01-22T02:20:20.089Z,103683.53
2023-01-22T02:23:07.509Z,103682.09
2023-01-22T02:25:54.798Z,103664.03
2023-01-22T02:28:42.092Z,103672.16
2023-01-22T02:31:29.246Z,103674.13
2023-01-22T02:34:16.438Z,103626.13
2023-01-22T02:37:06.196Z,103668.59
2023-01-22T02:39:53.578Z,103598.88
2023-01-22T02:42:40.666Z,103681.25
2023-01-22T02:45:28.239Z,103671.16
2023-01-22T02:48:15.343Z,103674.00
2023-01-22T02:51:02.477Z,103670.72
2023-01-22T02:53:49.683Z,103668.53
2023-01-22T02:56:37.186Z,103630.34
2023-01-22T02:59:24.793Z,103647.94
2023-01-22T03:02:11.767Z,103653.88
2023-01-22T03:04:58.788Z,103658.50
2023-01-22T03:07:45.857Z,103654.59
2023-01-22T03:10:38.914Z,103592.78
2023-01-22T03:13:24.787Z,103650.97
2023-01-22T03:16:12.310Z,103645.28
2023-01-22T03:18:57.901Z,103617.56
2023-01-22T03:21:45.089Z,103584.25
2023-01-22T03:24:32.095Z,103631.34
2023-01-22T03:27:21.210Z,103647.72
2023-01-22T03:30:08.619Z,103629.06
2023-01-22T03:32:55.980Z,103636.88
2023-01-22T03:35:42.964Z,103650.50
2023-01-22T03:38:35.262Z,103650.81
2023-01-22T03:41:28.677Z,103648.59
2023-01-22T03:44:15.839Z,103628.13
2023-01-22T03:47:03.168Z,103638.91
2023-01-22T03:49:50.171Z,103628.72
2023-01-22T03:52:37.341Z,103629.09
2023-01-22T03:55:24.649Z,103626.81
2023-01-22T03:58:13.033Z,103630.53
2023-01-22T04:01:00.155Z,103633.31
2023-01-22T04:03:49.238Z,103631.16
2023-01-22T04:06:37.441Z,103630.50
2023-01-22T04:09:24.937Z,103623.78
2023-01-22T04:12:11.840Z,103614.50
2023-01-22T04:14:58.796Z,103619.09
2023-01-22T04:17:46.716Z,103599.03
2023-01-22T04:20:48.526Z,103597.31
2023-01-22T04:23:52.704Z,103615.38
2023-01-22T04:26:40.055Z,103620.94
2023-01-22T04:29:27.385Z,103628.09
2023-01-22T04:32:14.595Z,103628.31
2023-01-22T04:35:10.727Z,103618.78
2023-01-22T04:38:04.153Z,103617.50
2023-01-22T04:40:51.528Z,103614.16
2023-01-22T04:43:38.537Z,103623.06
2023-01-22T04:46:26.076Z,103607.28
2023-01-22T04:49:13.368Z,103590.72
2023-01-22T04:52:02.026Z,103603.41
2023-01-22T04:54:50.208Z,103612.47
2023-01-22T04:57:37.248Z,103623.16
2023-01-22T05:00:26.083Z,103565.25
2023-01-22T05:03:18.306Z,103618.44
2023-01-22T05:06:05.329Z,103624.97
2023-01-22T05:08:55.139Z,103612.28
2023-01-22T05:11:42.365Z,103609.94
2023-01-22T05:14:29.802Z,103617.19
2023-01-22T05:17:18.056Z,103609.69
2023-01-22T05:20:05.147Z,103604.81
2023-01-22T05:22:53.138Z,103612.97
2023-01-22T05:25:44.256Z,103573.31
2023-01-22T05:28:31.363Z,103607.59
2023-01-22T05:31:29.630Z,103603.59
2023-01-22T05:34:20.822Z,103608.28
2023-01-22T05:37:08.208Z,103600.53
2023-01-22T05:39:55.883Z,103609.81
2023-01-22T05:42:43.477Z,103616.19
2023-01-22T05:45:32.454Z,103606.78
2023-01-22T05:48:37.560Z,103613.16
2023-01-22T05:51:37.843Z,103602.97
2023-01-22T05:54:25.143Z,103610.25
2023-01-22T05:57:12.630Z,103603.44
2023-01-22T05:59:59.949Z,103593.13
2023-01-22T06:02:47.092Z,103594.91
2023-01-22T06:05:35.204Z,103597.09
2023-01-22T06:08:26.577Z,103599.09
2023-01-22T06:11:24.663Z,103597.50
2023-01-22T06:14:11.877Z,103586.31
2023-01-22T06:16:58.998Z,103576.50
2023-01-22T06:19:57.769Z,103599.78
2023-01-22T06:22:44.800Z,103586.66
2023-01-22T06:25:32.162Z,103605.41
2023-01-22T06:28:28.737Z,103604.63
2023-01-22T06:31:19.498Z,103605.69
2023-01-22T06:34:06.592Z,103610.19
2023-01-22T06:36:53.694Z,103607.75
2023-01-22T06:39:40.851Z,103596.34
2023-01-22T06:42:36.609Z,103594.72
2023-01-22T06:45:24.379Z,103608.94
2023-01-22T06:48:14.425Z,103612.66
2023-01-22T06:51:01.437Z,103614.53
2023-01-22T06:53:48.495Z,103620.78
2023-01-22T06:56:35.391Z,103609.59
2023-01-22T06:59:24.656Z,103603.59
2023-01-22T07:02:11.481Z,103610.66
2023-01-22T07:04:58.546Z,103601.13
2023-01-22T07:07:45.382Z,103521.97
2023-01-22T07:10:33.029Z,103603.06
2023-01-22T07:13:19.897Z,103573.81
2023-01-22T07:16:06.821Z,103603.28
2023-01-22T07:18:53.778Z,103608.63
2023-01-22T07:21:40.760Z,103607.88
2023-01-22T07:24:27.781Z,103533.19
2023-01-22T12:56:33.431Z,103482.56
2023-01-22T12:59:00.827Z,103454.84
2023-01-22T13:01:36.220Z,103494.78
2023-01-22T13:04:07.708Z,103484.31
2023-01-22T13:06:39.163Z,103486.09
2023-01-22T13:09:23.624Z,103487.00
2023-01-22T13:11:50.724Z,103440.97
2023-01-22T13:14:28.398Z,103479.13
2023-01-22T13:16:59.645Z,103473.00
2023-01-22T13:19:38.723Z,103480.06
2023-01-22T13:22:08.139Z,103482.66
2023-01-22T13:24:35.035Z,103488.75
2023-01-22T13:27:03.485Z,103482.69
2023-01-22T13:29:37.683Z,103479.16
2023-01-22T13:32:19.170Z,103468.63
2023-01-22T13:34:46.567Z,103467.72
2023-01-22T13:37:33.922Z,103457.16
2023-01-22T13:40:31.468Z,103462.34
2023-01-22T13:43:01.782Z,103352.22
2023-01-22T13:45:31.556Z,103462.41
2023-01-22T13:48:04.252Z,103468.47
2023-01-22T13:50:32.154Z,103471.16
2023-01-22T13:53:02.049Z,103465.88
2023-01-22T13:55:30.414Z,103471.13
2023-01-22T13:58:00.752Z,103470.22
2023-01-22T14:00:36.928Z,103466.75
2023-01-22T14:03:20.748Z,103463.16
2023-01-22T14:05:50.205Z,103416.09
2023-01-22T14:08:17.297Z,103445.66
2023-01-22T14:10:44.290Z,103434.97
2023-01-22T14:13:13.477Z,103441.22
2023-01-22T14:15:42.016Z,103449.06
2023-01-22T14:18:16.360Z,103442.94
2023-01-22T14:20:46.155Z,103445.53
2023-01-22T14:23:14.075Z,103438.47
2023-01-22T14:26:07.068Z,103438.41
2023-01-22T14:28:55.989Z,103426.88
2023-01-22T14:31:23.085Z,103433.09
2023-01-22T14:33:50.005Z,103441.88
2023-01-22T14:36:18.520Z,103436.56
2023-01-22T14:38:45.491Z,103426.91
2023-01-22T14:41:12.469Z,103429.53
2023-01-22T14:43:39.513Z,103417.94
2023-01-22T14:46:07.364Z,103418.00
2023-01-22T14:48:34.495Z,103418.06
2023-01-22T14:51:07.068Z,103412.81
2023-01-22T14:53:34.619Z,103413.72
2023-01-22T14:56:01.455Z,103411.88
2023-01-22T14:58:28.381Z,103419.69
2023-01-22T15:00:55.373Z,103417.94
2023-01-22T15:03:22.340Z,103417.91
2023-01-22T15:05:52.707Z,103410.75
2023-01-22T15:08:19.618Z,103409.88
2023-01-22T15:10:46.459Z,103413.38
2023-01-22T15:13:13.414Z,103391.25
2023-01-22T15:15:40.371Z,103403.69
2023-01-22T15:18:07.371Z,103406.25
2023-01-22T15:20:34.361Z,103406.22
2023-01-22T15:23:01.488Z,103407.03
2023-01-22T15:25:28.409Z,103408.69
2023-01-22T15:27:55.291Z,103401.63
2023-01-22T15:30:22.857Z,103385.53
2023-01-22T15:32:49.762Z,103396.97
2023-01-22T15:35:16.688Z,103398.78
2023-01-22T15:37:43.625Z,103385.56
2023-01-22T15:40:11.300Z,103391.66
2023-01-22T15:42:38.176Z,103388.06
2023-01-22T15:45:06.750Z,103310.00
2023-01-22T15:47:33.796Z,103387.06
2023-01-22T15:50:00.691Z,103340.00
2023-01-22T15:52:27.704Z,103388.63
2023-01-22T15:54:54.672Z,103385.91
2023-01-22T15:57:21.523Z,103398.09
2023-01-22T15:59:48.525Z,103394.50
2023-01-22T16:02:15.567Z,103390.06
2023-01-22T16:04:42.457Z,103304.84
2023-01-22T16:07:09.441Z,103379.31
2023-01-22T16:09:56.360Z,103387.16
2023-01-22T16:12:43.400Z,103381.84
2023-01-22T16:15:30.706Z,103380.91
2023-01-22T16:18:17.730Z,103338.19
2023-01-22T16:21:04.583Z,103371.94
2023-01-22T16:23:52.848Z,103368.47
2023-01-22T16:26:41.950Z,103365.78
2023-01-22T16:29:29.036Z,103363.97
2023-01-22T16:32:16.204Z,103361.25
2023-01-22T16:35:03.635Z,103355.03
2023-01-22T16:37:50.421Z,103357.56
2023-01-22T16:40:37.582Z,103327.28
2023-01-22T16:43:24.815Z,103350.44
2023-01-22T16:46:11.987Z,103351.25
2023-01-22T16:48:58.884Z,103346.81
2023-01-22T16:51:47.079Z,103346.72
2023-01-22T16:54:58.078Z,103351.91
2023-01-22T16:57:25.145Z,103338.72
2023-01-22T16:59:52.013Z,103347.41
2023-01-22T17:02:19.473Z,103349.13
2023-01-22T17:04:46.513Z,103345.53
2023-01-22T17:07:27.316Z,103353.31
2023-01-22T17:09:58.845Z,103353.25
2023-01-22T17:12:26.522Z,103334.00
2023-01-22T17:14:53.441Z,103349.66
2023-01-22T17:17:20.472Z,103348.66
2023-01-22T17:19:47.491Z,103351.19
2023-01-22T17:22:14.455Z,103343.00
2023-01-22T17:24:41.782Z,103344.91
2023-01-22T17:27:08.873Z,103309.38
2023-01-22T17:29:36.372Z,103343.00
2023-01-22T17:32:04.285Z,103342.91
2023-01-22T17:34:31.317Z,103339.34
2023-01-22T17:36:58.303Z,103343.63
2023-01-22T17:39:25.414Z,103340.06
2023-01-22T17:41:52.309Z,103331.28
2023-01-22T17:44:40.887Z,103330.34
2023-01-22T17:47:27.910Z,103333.78
2023-01-22T17:50:14.785Z,103304.34
2023-01-22T17:53:01.669Z,103246.59
2023-01-22T17:55:49.371Z,103326.44
2023-01-22T17:58:36.240Z,103319.44
2023-01-22T18:01:25.601Z,103314.94
2023-01-22T18:04:12.653Z,103319.22
2023-01-22T18:07:01.893Z,103318.25
2023-01-22T18:09:48.874Z,103302.47
2023-01-22T18:12:35.867Z,103297.16
2023-01-22T18:15:22.721Z,103297.03
2023-01-22T18:18:09.921Z,103296.94
2023-01-22T18:20:56.854Z,103289.66
2023-01-22T18:23:44.274Z,103295.81
2023-01-22T18:26:31.901Z,103306.16
2023-01-22T18:29:19.337Z,103299.13
2023-01-22T18:32:06.349Z,103294.59
2023-01-22T18:34:53.545Z,103297.91
2023-01-22T18:37:40.410Z,103306.59
2023-01-22T18:40:28.215Z,103306.56
2023-01-22T18:43:15.088Z,103306.41
2023-01-22T18:46:02.512Z,103306.34
2023-01-22T18:48:49.417Z,103300.84
2023-01-22T18:51:36.502Z,103292.19
2023-01-22T18:54:27.213Z,103297.31
2023-01-22T18:57:14.068Z,103292.84
2023-01-22T19:00:00.949Z,103306.69
2023-01-22T19:02:48.059Z,103311.81
2023-01-22T19:05:35.048Z,103310.00
2023-01-22T19:08:22.095Z,103286.78
2023-01-22T19:11:08.985Z,103317.63
2023-01-22T19:13:55.998Z,103313.16
2023-01-22T19:16:44.189Z,103314.84
2023-01-22T19:19:32.828Z,103303.41
2023-01-22T19:22:19.676Z,103286.50
2023-01-22T19:25:06.528Z,103290.19
2023-01-22T19:27:53.724Z,103294.41
2023-01-22T19:30:41.037Z,103276.84
2023-01-22T19:33:28.024Z,103279.47
2023-01-22T19:36:15.895Z,103275.00
2023-01-22T19:39:03.303Z,103271.47
2023-01-22T19:41:50.710Z,103286.19
2023-01-22T19:44:37.640Z,103286.13
2023-01-22T19:47:24.569Z,103263.38
2023-01-22T19:50:11.350Z,103246.53
2023-01-22T19:52:58.314Z,103263.28
2023-01-22T19:55:45.285Z,103225.00
2023-01-22T19:58:32.704Z,103253.47
2023-01-22T20:01:19.628Z,103263.00
2023-01-22T20:04:06.983Z,103259.25
2023-01-22T20:06:53.913Z,103267.25
2023-01-22T20:09:41.581Z,103268.00
2023-01-22T20:12:28.428Z,103266.19
2023-01-22T20:15:16.458Z,103262.69
2023-01-22T20:18:03.562Z,103243.34
2023-01-22T20:20:50.555Z,103251.28
2023-01-22T20:23:37.562Z,103246.81
2023-01-22T20:26:28.900Z,103228.63
2023-01-22T20:29:15.942Z,103248.34
2023-01-22T20:32:02.998Z,103249.19
2023-01-22T20:34:49.933Z,103253.44
2023-01-22T20:37:37.417Z,103252.47
2023-01-22T20:40:24.645Z,103256.69
2023-01-22T20:43:11.743Z,103240.75
2023-01-22T20:45:58.677Z,103243.44
2023-01-22T20:48:46.058Z,103237.19
2023-01-22T20:51:35.403Z,103220.41
2023-01-22T20:54:22.526Z,103219.44
2023-01-22T20:57:09.345Z,103225.56
2023-01-22T20:59:56.286Z,103223.59
2023-01-22T21:02:43.316Z,103220.94
2023-01-22T21:05:30.309Z,103214.72
2023-01-22T21:08:17.165Z,103205.06
2023-01-22T21:11:04.137Z,103201.38
2023-01-22T21:13:50.959Z,103196.06
2023-01-22T21:16:41.125Z,103190.72
2023-01-22T21:19:34.826Z,103197.50
2023-01-22T21:22:21.899Z,103201.69
2023-01-22T21:25:08.784Z,103203.34
2023-01-22T21:27:55.919Z,103206.69
2023-01-22T21:30:42.720Z,103202.25
2023-01-22T21:33:29.724Z,103181.03
2023-01-22T21:36:16.647Z,103201.19
2023-01-22T21:39:05.456Z,103113.47
2023-01-22T21:41:55.004Z,103174.00
2023-01-22T21:44:40.178Z,103179.09
2023-01-22T21:47:27.128Z,103185.06
2023-01-22T21:50:14.197Z,103179.75
2023-01-22T21:53:01.240Z,103192.72
2023-01-22T21:55:48.227Z,103193.47
2023-01-22T21:58:35.241Z,103185.59
2023-01-22T22:01:26.296Z,103187.88
2023-01-22T22:04:13.282Z,103188.00
2023-01-22T22:07:00.565Z,103180.97
2023-01-22T22:09:48.661Z,103187.81
2023-01-22T22:12:35.636Z,103199.03
2023-01-22T22:15:22.647Z,103203.28
2023-01-22T22:18:09.695Z,103202.19
2023-01-22T22:20:57.055Z,103187.09
2023-01-22T22:23:44.010Z,103199.41
2023-01-22T22:26:31.515Z,103208.91
2023-01-22T22:29:18.600Z,103203.56
2023-01-22T22:32:05.604Z,103210.47
2023-01-22T22:34:52.685Z,103205.22
2023-01-22T22:37:39.599Z,103204.19
2023-01-22T22:40:26.973Z,103211.19
2023-01-22T22:43:14.193Z,103212.00
2023-01-22T22:46:01.268Z,103221.47
2023-01-22T22:48:48.219Z,103148.81
2023-01-22T22:51:41.993Z,103210.09
2023-01-22T22:54:35.205Z,103214.41
2023-01-22T22:57:22.167Z,103200.59
2023-01-22T23:00:09.191Z,103182.03
2023-01-22T23:02:56.106Z,103191.94
2023-01-22T23:05:42.971Z,103192.84
2023-01-22T23:08:29.967Z,103195.56
2023-01-22T23:11:16.922Z,103172.81
2023-01-22T23:14:05.624Z,103179.34
2023-01-22T23:17:03.438Z,103179.53
2023-01-22T23:19:50.602Z,103174.50
2023-01-22T23:22:37.543Z,103178.19
2023-01-22T23:25:24.804Z,103174.88
2023-01-22T23:28:12.009Z,103185.41
2023-01-22T23:30:59.052Z,103165.97
2023-01-22T23:33:46.111Z,103185.88
2023-01-22T23:36:35.372Z,103157.16
2023-01-22T23:39:23.596Z,103173.25
2023-01-22T23:42:10.569Z,103170.03
2023-01-22T23:44:57.494Z,103124.97
2023-01-22T23:47:44.323Z,103153.38
2023-01-22T23:50:31.333Z,103167.03
2023-01-22T23:53:18.423Z,103166.34
2023-01-22T23:56:05.380Z,103107.19
2023-01-22T23:58:53.675Z,103166.63
